Thunder radar more information blitzortung!


Radar de pluja more information rain snow radar


Visita la nostra xarxa de llocs de meteo:

Template documentation
and downloads

And another site



No particular awareness of the weather is required.    There are no Weather-warnings

Pagina Historial Weather Underground text

Diari Resum January 22, 2018 Unitats:  Imperial    Mètric   Tant
« Previous Dia
SegĂźent Dia »
Diari Setmana Mensual Anual Personalitzada
  Maxima: Minima: Media:
Temperatura: TemperatureC °F 11.3 °F 14.2 °F
Punt de rosada: DewpointC °F 4.4 °F 6.1 °F
Humitat: Humidity % 50 % 58 %
Wind Speed: WindSpeedKMH mph 0.0 mph 5.4 mph
RĂ fegues de vent: WindSpeedGustKMH mph - -
Vent:- - SW
Pression baro: PressurehPa in 1021.9 in -
Precipitacions: 0.0 in    
Historical Graphs
 
 
Dades de taula per January 22, 2018
Temps Temperatura Punt de rosada Pression baro Vent Wind Speed RĂ fegues de vent Humitat Rainfall Rate (Hourly)
TemperatureC °F DewpointC °F PressurehPa in Calm     Humidity % HourlyPrecipMM in
00:03 13.5 °F 5.9 °F 1022.9 in WSW 7.9 mph 7.9 mph 60 % 0.0 in
00:08 13.5 °F 5.9 °F 1022.9 in West 10.3 mph 10.3 mph 60 % 0.0 in
00:13 13.5 °F 5.9 °F 1022.9 in West 9.0 mph 9.0 mph 60 % 0.0 in
00:18 13.5 °F 5.9 °F 1022.9 in West 9.3 mph 9.3 mph 60 % 0.0 in
00:23 13.4 °F 5.8 °F 1022.9 in West 9.3 mph 9.3 mph 60 % 0.0 in
00:28 13.5 °F 6.1 °F 1022.9 in WSW 11.1 mph 11.1 mph 61 % 0.0 in
00:33 13.5 °F 6.1 °F 1022.9 in West 7.4 mph 7.4 mph 61 % 0.0 in
00:38 13.5 °F 6.1 °F 1022.9 in West 7.4 mph 7.4 mph 61 % 0.0 in
00:43 13.3 °F 5.9 °F 1022.9 in West 7.4 mph 7.4 mph 61 % 0.0 in
00:48 13.3 °F 5.9 °F 1022.9 in WNW 7.4 mph 7.4 mph 61 % 0.0 in
00:53 13.3 °F 5.9 °F 1022.9 in West 11.4 mph 11.4 mph 61 % 0.0 in
00:58 13.3 °F 5.9 °F 1022.9 in South 9.3 mph 9.3 mph 61 % 0.0 in
01:03 13.2 °F 5.8 °F 1023.9 in WSW 9.3 mph 9.3 mph 61 % 0.0 in
01:08 13.2 °F 5.8 °F 1023.9 in WSW 14.8 mph 14.8 mph 61 % 0.0 in
01:13 13.2 °F 5.8 °F 1023.9 in West 7.9 mph 7.9 mph 61 % 0.0 in
01:18 13.2 °F 5.8 °F 1022.9 in WSW 7.4 mph 7.4 mph 61 % 0.0 in
01:23 13.1 °F 5.7 °F 1022.9 in West 10.3 mph 10.3 mph 61 % 0.0 in
01:28 13.0 °F 5.7 °F 1022.9 in WSW 5.3 mph 5.3 mph 61 % 0.0 in
01:33 13.0 °F 5.7 °F 1022.9 in WNW 7.4 mph 7.4 mph 61 % 0.0 in
01:38 12.9 °F 5.6 °F 1022.9 in SSW 7.4 mph 7.4 mph 61 % 0.0 in
01:43 12.9 °F 5.8 °F 1022.9 in WNW 5.6 mph 5.6 mph 62 % 0.0 in
01:48 12.8 °F 5.7 °F 1022.9 in NNE 3.2 mph 3.2 mph 62 % 0.0 in
01:53 12.8 °F 5.7 °F 1022.9 in West 5.6 mph 5.6 mph 62 % 0.0 in
01:58 12.7 °F 5.6 °F 1022.9 in NE 3.7 mph 3.7 mph 62 % 0.0 in
02:04 12.7 °F 5.6 °F 1022.9 in West 3.7 mph 3.7 mph 62 % 0.0 in
02:09 12.8 °F 5.7 °F 1022.9 in WNW 7.4 mph 7.4 mph 62 % 0.0 in
02:14 12.7 °F 5.6 °F 1022.9 in ENE 2.6 mph   62 % 0.0 in
02:19 12.9 °F 5.8 °F 1022.9 in WSW 4.2 mph 4.2 mph 62 % 0.0 in
02:24 12.8 °F 5.7 °F 1022.9 in ESE 5.6 mph 5.6 mph 62 % 0.0 in
02:29 12.7 °F 5.6 °F 1022.9 in NNE 3.7 mph 3.7 mph 62 % 0.0 in
02:34 12.7 °F 5.6 °F 1022.9 in SW 7.4 mph 7.4 mph 62 % 0.0 in
02:39 12.7 °F 5.6 °F 1022.9 in WSW 7.4 mph 7.4 mph 62 % 0.0 in
02:44 12.7 °F 5.8 °F 1022.9 in ENE 5.6 mph 5.6 mph 63 % 0.0 in
02:49 12.7 °F 5.8 °F 1022.9 in NW 5.6 mph 5.6 mph 63 % 0.0 in
02:54 12.6 °F 5.7 °F 1022.9 in WSW 3.7 mph 3.7 mph 63 % 0.0 in
02:59 12.6 °F 5.7 °F 1022.9 in SW 5.6 mph 5.6 mph 63 % 0.0 in
03:04 12.6 °F 5.7 °F 1022.9 in WNW 5.6 mph 5.6 mph 63 % 0.0 in
03:09 12.6 °F 5.7 °F 1022.9 in ESE 5.6 mph 5.6 mph 63 % 0.0 in
03:14 12.6 °F 5.7 °F 1022.9 in ENE 9.3 mph 9.3 mph 63 % 0.0 in
03:19 12.6 °F 5.7 °F 1022.9 in NNE 11.1 mph 11.1 mph 63 % 0.0 in
03:25 12.5 °F 5.9 °F 1022.9 in ESE 3.2 mph 4.8 mph 64 % 0.0 in
03:30 12.5 °F 5.9 °F 1022.9 in WSW 5.6 mph 5.6 mph 64 % 0.0 in
03:35 12.5 °F 5.7 °F 1022.9 in ENE 5.6 mph 5.6 mph 63 % 0.0 in
03:40 12.5 °F 5.9 °F 1022.9 in West 3.9 mph 3.9 mph 64 % 0.0 in
03:45 12.6 °F 5.9 °F 1022.9 in WSW 7.4 mph 7.4 mph 64 % 0.0 in
03:50 12.6 °F 5.9 °F 1022.9 in North 9.3 mph 9.3 mph 64 % 0.0 in
03:55 12.5 °F 5.9 °F 1022.9 in ENE 7.9 mph 7.9 mph 64 % 0.0 in
04:00 12.4 °F 5.8 °F 1022.9 in West 5.6 mph 5.6 mph 64 % 0.0 in
04:05 12.4 °F 5.8 °F 1022.9 in ENE 5.6 mph 5.6 mph 64 % 0.0 in
04:20 12.4 °F 5.8 °F 1022.9 in NW 5.3 mph 5.3 mph 64 % 0.0 in
04:25 12.3 °F 5.7 °F 1022.9 in WSW 7.4 mph 7.4 mph 64 % 0.0 in
04:30 12.3 °F 5.9 °F 1022.9 in NNW 3.7 mph 3.7 mph 65 % 0.0 in
04:40 12.4 °F 5.8 °F 1022.9 in West 7.4 mph 7.4 mph 64 % 0.0 in
04:45 12.3 °F 5.9 °F 1022.9 in WSW 5.6 mph 5.6 mph 65 % 0.0 in
04:55 12.2 °F 5.8 °F 1022.9 in West 3.2 mph 8.0 mph 65 % 0.0 in
05:00 12.2 °F 5.8 °F 1022.9 in NNW 5.6 mph 5.6 mph 65 % 0.0 in
05:05 12.1 °F 5.7 °F 1022.9 in West 1.6 mph 8.0 mph 65 % 0.0 in
05:10 12.1 °F 5.7 °F 1022.9 in West 3.2 mph 8.0 mph 65 % 0.0 in
05:20 12.1 °F 5.7 °F 1022.9 in WSW 7.4 mph 7.4 mph 65 % 0.0 in
05:25 12.1 °F 5.7 °F 1022.9 in WNW 13.0 mph 13.0 mph 65 % 0.0 in
05:30 12.1 °F 5.7 °F 1022.9 in WSW 9.7 mph 9.7 mph 65 % 0.0 in
05:35 12.1 °F 5.7 °F 1021.9 in WSW 5.6 mph 5.6 mph 65 % 0.0 in
05:40 12.1 °F 5.9 °F 1021.9 in NNW 5.8 mph 5.8 mph 66 % 0.0 in
05:45 12.2 °F 6.1 °F 1021.9 in NNW 5.6 mph 5.6 mph 66 % 0.0 in
05:50 12.2 °F 6.1 °F 1022.9 in NE 7.4 mph 7.4 mph 66 % 0.0 in
05:55 12.2 °F 6.1 °F 1022.9 in West 3.7 mph 3.7 mph 66 % 0.0 in
06:00 12.2 °F 5.8 °F 1022.9 in NE 11.1 mph 11.1 mph 65 % 0.0 in
06:05 12.2 °F 6.1 °F 1022.9 in SE 9.3 mph 9.3 mph 66 % 0.0 in
06:10 12.2 °F 5.8 °F 1022.9 in SW 7.4 mph 7.4 mph 65 % 0.0 in
06:15 12.1 °F 5.7 °F 1022.9 in WNW 5.6 mph 5.6 mph 65 % 0.0 in
06:20 11.8 °F 5.7 °F 1022.9 in NNE 7.9 mph 7.9 mph 66 % 0.0 in
06:25 11.8 °F 5.7 °F 1022.9 in ESE 5.6 mph 5.6 mph 66 % 0.0 in
06:30 11.7 °F 5.6 °F 1022.9 in West 5.8 mph 5.8 mph 66 % 0.0 in
06:35 11.7 °F 5.6 °F 1022.9 in South 1.9 mph 2.3 mph 66 % 0.0 in
06:40 11.7 °F 5.6 °F 1022.9 in WSW 5.6 mph 5.6 mph 66 % 0.0 in
06:45 11.7 °F 5.6 °F 1022.9 in SW 3.7 mph   66 % 0.0 in
06:50 11.5 °F 5.6 °F 1022.9 in WSW 6.1 mph   67 % 0.0 in
07:00 11.5 °F 5.6 °F 1022.9 in ENE 2.6 mph 2.6 mph 67 % 0.0 in
07:05 11.5 °F 5.4 °F 1022.9 in NNW 3.7 mph 3.7 mph 66 % 0.0 in
07:10 11.5 °F 5.6 °F 1022.9 in WSW 5.0 mph 5.0 mph 67 % 0.0 in
07:15 11.6 °F 5.7 °F 1022.9 in NW 13.0 mph 13.0 mph 67 % 0.0 in
07:20 11.5 °F 5.6 °F 1022.9 in NW 9.3 mph 9.3 mph 67 % 0.0 in
07:25 11.5 °F 5.6 °F 1022.9 in NNW 9.0 mph 9.0 mph 67 % 0.0 in
07:30 11.4 °F 5.5 °F 1022.9 in West 3.7 mph 3.7 mph 67 % 0.0 in
07:35 11.4 °F 5.5 °F 1023.9 in WNW 7.4 mph   67 % 0.0 in
07:40 11.4 °F 5.5 °F 1023.9 in WNW 7.4 mph 7.4 mph 67 % 0.0 in
07:45 11.4 °F 5.5 °F 1023.9 in West 5.6 mph 5.6 mph 67 % 0.0 in
07:55 11.4 °F 5.5 °F 1022.9 in WSW 7.4 mph 7.4 mph 67 % 0.0 in
08:00 11.3 °F 5.4 °F 1022.9 in NW 5.6 mph 5.6 mph 67 % 0.0 in
08:05 11.3 °F 5.4 °F 1023.9 in WNW 7.4 mph 7.4 mph 67 % 0.0 in
08:10 11.3 °F 5.4 °F 1023.9 in WSW 7.4 mph 7.4 mph 67 % 0.0 in
08:15 11.3 °F 5.4 °F 1023.9 in SW 5.6 mph 5.6 mph 67 % 0.0 in
08:20 11.3 °F 5.4 °F 1023.9 in WNW 5.6 mph 5.6 mph 67 % 0.0 in
08:25 11.3 °F 5.4 °F 1023.9 in WSW 3.9 mph 3.9 mph 67 % 0.0 in
08:30 11.4 °F 5.5 °F 1023.9 in WSW 7.4 mph 7.4 mph 67 % 0.0 in
08:35 11.5 °F 5.6 °F 1023.9 in West 6.4 mph 6.4 mph 67 % 0.0 in
08:40 11.5 °F 5.6 °F 1023.9 in ENE 3.7 mph 3.7 mph 67 % 0.0 in
08:45 11.6 °F 5.9 °F 1023.9 in NW 1.9 mph 1.9 mph 68 % 0.0 in
08:50 11.7 °F 5.8 °F 1023.9 in West 3.2 mph 3.2 mph 67 % 0.0 in
08:55 12.1 °F 6.2 °F 1023.9 in Calm     67 % 0.0 in
09:00 12.1 °F 6.2 °F 1023.9 in NNW 1.9 mph   67 % 0.0 in
09:05 12.1 °F 6.2 °F 1023.9 in NE 3.7 mph 3.7 mph 67 % 0.0 in
09:10 12.1 °F 6.2 °F 1023.9 in ENE 3.7 mph   67 % 0.0 in
09:15 12.4 °F 6.4 °F 1023.9 in ENE 1.9 mph 1.9 mph 67 % 0.0 in
09:20 12.6 °F 6.4 °F 1023.9 in NE 4.2 mph 4.2 mph 66 % 0.0 in
09:25 12.4 °F 6.2 °F 1023.9 in ENE 5.6 mph 5.6 mph 66 % 0.0 in
09:30 12.1 °F 5.7 °F 1023.9 in NNE 5.6 mph 5.6 mph 65 % 0.0 in
09:35 12.0 °F 5.8 °F 1023.9 in NNW 5.6 mph 5.6 mph 66 % 0.0 in
09:40 12.0 °F 5.8 °F 1023.9 in NNE 4.7 mph 4.7 mph 66 % 0.0 in
09:45 12.3 °F 6.1 °F 1023.9 in NE 5.3 mph 5.3 mph 66 % 0.0 in
09:50 12.2 °F 6.1 °F 1023.9 in NNE 4.2 mph 4.2 mph 66 % 0.0 in
09:55 12.3 °F 6.1 °F 1023.9 in NNE 3.7 mph 3.7 mph 66 % 0.0 in
10:00 12.4 °F 6.2 °F 1023.9 in NE 3.7 mph 3.7 mph 66 % 0.0 in
10:05 12.7 °F 6.5 °F 1024.9 in SW 5.6 mph 5.6 mph 66 % 0.0 in
10:10 13.1 °F 6.7 °F 1024.9 in West 7.4 mph 7.4 mph 65 % 0.0 in
10:15 13.4 °F 6.9 °F 1024.9 in WNW 9.3 mph 9.3 mph 65 % 0.0 in
10:20 13.6 °F 7.2 °F 1024.9 in WSW 1.9 mph 1.9 mph 65 % 0.0 in
10:25 13.8 °F 7.1 °F 1024.9 in WSW 5.8 mph 5.8 mph 64 % 0.0 in
10:30 14.1 °F 7.4 °F 1024.9 in SW 5.6 mph   64 % 0.0 in
10:35 14.1 °F 7.4 °F 1023.9 in WSW 11.1 mph 11.1 mph 64 % 0.0 in
10:40 14.2 °F 7.3 °F 1023.9 in NNE 5.6 mph 5.6 mph 63 % 0.0 in
10:45 14.5 °F 7.6 °F 1023.9 in WSW 7.4 mph 7.4 mph 63 % 0.0 in
10:50 14.6 °F 7.6 °F 1023.9 in NNW 5.8 mph 5.8 mph 63 % 0.0 in
10:55 14.8 °F 7.6 °F 1023.9 in West 3.7 mph 3.7 mph 62 % 0.0 in
11:00 14.9 °F 7.7 °F 1023.9 in West 6.1 mph 6.1 mph 62 % 0.0 in
11:05 15.0 °F 7.8 °F 1024.9 in SW 3.7 mph 3.7 mph 62 % 0.0 in
11:10 15.0 °F 7.6 °F 1024.9 in WSW 7.4 mph 7.4 mph 61 % 0.0 in
11:15 15.2 °F 7.7 °F 1024.9 in SW 3.7 mph 3.7 mph 61 % 0.0 in
11:20 15.5 °F 8.0 °F 1024.9 in WSW 5.6 mph 5.6 mph 61 % 0.0 in
11:25 15.6 °F 8.1 °F 1024.9 in WSW 4.7 mph 4.7 mph 61 % 0.0 in
11:30 15.6 °F 7.8 °F 1024.9 in WSW 7.4 mph 7.4 mph 60 % 0.0 in
11:40 15.8 °F 7.8 °F 1024.9 in ENE 9.3 mph 9.3 mph 59 % 0.0 in
11:45 15.8 °F 7.8 °F 1024.9 in West 9.5 mph 9.5 mph 59 % 0.0 in
11:55 16.1 °F 7.8 °F 1023.9 in West 5.8 mph 5.8 mph 58 % 0.0 in
12:00 16.2 °F 7.9 °F 1023.9 in WNW 9.3 mph 9.3 mph 58 % 0.0 in
12:05 16.4 °F 8.1 °F 1023.9 in SW 6.9 mph 6.9 mph 58 % 0.0 in
12:15 17.0 °F 8.2 °F 1023.9 in WSW 5.0 mph 5.0 mph 56 % 0.0 in
12:20 17.1 °F 8.2 °F 1023.9 in WSW 5.6 mph 5.6 mph 56 % 0.0 in
12:25 17.0 °F 7.9 °F 1023.9 in WSW 13.0 mph 13.0 mph 55 % 0.0 in
12:30 17.0 °F 7.9 °F 1023.9 in West 10.3 mph 10.3 mph 55 % 0.0 in
12:35 16.8 °F 7.7 °F 1023.9 in WSW 13.0 mph 13.0 mph 55 % 0.0 in
12:40 17.0 °F 7.6 °F 1023.9 in SW 7.4 mph 7.4 mph 54 % 0.0 in
12:45 17.2 °F 7.8 °F 1023.9 in West 7.4 mph 7.9 mph 54 % 0.0 in
12:50 17.1 °F 7.7 °F 1022.9 in WNW 16.7 mph 16.7 mph 54 % 0.0 in
12:55 17.1 °F 7.4 °F 1022.9 in SW 11.1 mph 11.1 mph 53 % 0.0 in
13:00 17.3 °F 7.6 °F 1022.9 in WSW 13.0 mph 13.0 mph 53 % 0.0 in
13:05 17.3 °F 7.6 °F 1022.9 in WSW 13.0 mph 13.0 mph 53 % 0.0 in
13:10 17.7 °F 8.0 °F 1022.9 in WNW 7.4 mph 7.4 mph 53 % 0.0 in
13:15 18.0 °F 8.3 °F 1022.9 in West 9.0 mph 9.0 mph 53 % 0.0 in
13:20 18.1 °F 8.4 °F 1022.9 in North 9.3 mph 9.3 mph 53 % 0.0 in
13:25 18.2 °F 8.4 °F 1022.9 in SSW 5.6 mph 6.4 mph 53 % 0.0 in
13:30 18.0 °F 8.0 °F 1022.9 in West 14.8 mph 14.8 mph 52 % 0.0 in
13:35 18.3 °F 8.3 °F 1022.9 in WSW 7.6 mph 7.6 mph 52 % 0.0 in
13:40 17.9 °F 7.6 °F 1022.9 in ENE 16.7 mph 16.7 mph 51 % 0.0 in
13:45 18.2 °F 8.2 °F 1022.9 in NE 3.7 mph 3.7 mph 52 % 0.0 in
13:50 18.4 °F 8.4 °F 1022.9 in SSW 6.9 mph 6.9 mph 52 % 0.0 in
14:05 18.0 °F 7.7 °F 1021.9 in SW 7.4 mph 7.4 mph 51 % 0.0 in
14:10 18.3 °F 8.0 °F 1021.9 in WSW 7.4 mph 7.4 mph 51 % 0.0 in
14:15 18.1 °F 7.5 °F 1021.9 in West 22.2 mph 22.2 mph 50 % 0.0 in
14:20 18.2 °F 7.9 °F 1021.9 in ENE 13.0 mph 13.0 mph 51 % 0.0 in
14:25 18.0 °F 7.4 °F 1021.9 in West 14.8 mph 14.8 mph 50 % 0.0 in
14:30 18.0 °F 7.4 °F 1021.9 in SW 9.3 mph 9.3 mph 50 % 0.0 in
14:35 18.2 °F 7.6 °F 1022.9 in West 7.4 mph 7.4 mph 50 % 0.0 in
14:40 18.2 °F 7.6 °F 1022.9 in West 13.0 mph 13.0 mph 50 % 0.0 in
14:55 18.8 °F 8.2 °F 1021.9 in WSW 8.7 mph 8.7 mph 50 % 0.0 in
15:00 18.5 °F 7.9 °F 1021.9 in WSW 9.3 mph 9.3 mph 50 % 0.0 in
15:05 18.6 °F 7.9 °F 1022.9 in SW 9.3 mph 9.3 mph 50 % 0.0 in
15:10 18.5 °F 7.9 °F 1022.9 in WSW 9.3 mph 9.3 mph 50 % 0.0 in
15:15 18.5 °F 7.9 °F 1022.9 in WSW 4.8 mph 9.7 mph 50 % 0.0 in
15:20 18.6 °F 7.9 °F 1021.9 in West 4.8 mph 9.7 mph 50 % 0.0 in
15:25 18.6 °F 7.9 °F 1021.9 in West 4.8 mph 14.5 mph 50 % 0.0 in
15:30 18.7 °F 8.1 °F 1021.9 in WSW 1.6 mph 6.4 mph 50 % 0.0 in
15:35 18.6 °F 7.9 °F 1021.9 in WSW 4.8 mph 9.7 mph 50 % 0.0 in
15:45 18.4 °F 7.8 °F 1021.9 in WSW 3.2 mph 4.8 mph 50 % 0.0 in
15:50 18.3 °F 7.7 °F 1022.9 in WSW 5.6 mph 5.6 mph 50 % 0.0 in
15:55 18.2 °F 7.6 °F 1022.9 in WSW 5.6 mph 5.6 mph 50 % 0.0 in
16:00 18.1 °F 7.5 °F 1022.9 in WNW 5.6 mph 5.6 mph 50 % 0.0 in
16:05 18.0 °F 7.4 °F 1022.9 in WSW 4.2 mph 4.2 mph 50 % 0.0 in
16:10 17.8 °F 7.2 °F 1022.9 in WSW 4.2 mph 4.2 mph 50 % 0.0 in
16:15 17.6 °F 7.1 °F 1022.9 in West 5.6 mph 5.6 mph 50 % 0.0 in
16:20 17.5 °F 6.9 °F 1022.9 in WSW 5.6 mph 5.6 mph 50 % 0.0 in
16:25 17.4 °F 6.9 °F 1022.9 in West 3.2 mph 8.0 mph 50 % 0.0 in
16:30 17.3 °F 6.8 °F 1022.9 in WSW 5.6 mph 5.6 mph 50 % 0.0 in
16:35 17.1 °F 6.6 °F 1022.9 in West 3.2 mph 9.7 mph 50 % 0.0 in
16:40 17.0 °F 6.5 °F 1022.9 in West 3.2 mph 8.0 mph 50 % 0.0 in
16:45 17.0 °F 6.5 °F 1022.9 in West 1.6 mph 9.7 mph 50 % 0.0 in
16:50 16.9 °F 6.7 °F 1022.9 in West 1.6 mph 4.8 mph 51 % 0.0 in
16:55 16.8 °F 6.6 °F 1022.9 in SE 3.7 mph 3.7 mph 51 % 0.0 in
17:00 16.7 °F 6.5 °F 1022.9 in West 3.2 mph 4.8 mph 51 % 0.0 in
17:05 16.7 °F 6.5 °F 1022.9 in WSW 3.2 mph 4.8 mph 51 % 0.0 in
17:10 16.5 °F 6.3 °F 1022.9 in West 3.2 mph 8.0 mph 51 % 0.0 in
17:15 16.5 °F 6.3 °F 1022.9 in WSW 1.6 mph 4.8 mph 51 % 0.0 in
17:20 16.5 °F 6.3 °F 1022.9 in West 1.6 mph 3.2 mph 51 % 0.0 in
17:25 16.4 °F 6.2 °F 1022.9 in Calm   6.4 mph 51 % 0.0 in
17:30 16.3 °F 6.1 °F 1022.9 in Calm   3.2 mph 51 % 0.0 in
17:35 16.2 °F 6.3 °F 1022.9 in SSW 1.6 mph 3.2 mph 52 % 0.0 in
17:40 16.0 °F 6.2 °F 1022.9 in SSW 1.6 mph 3.2 mph 52 % 0.0 in
17:45 15.9 °F 6.1 °F 1022.9 in SW 1.6 mph 3.2 mph 52 % 0.0 in
17:50 15.7 °F 5.9 °F 1022.9 in Calm   3.2 mph 52 % 0.0 in
17:55 15.6 °F 5.8 °F 1022.9 in SSW 1.6 mph 6.4 mph 52 % 0.0 in
18:00 15.5 °F 5.7 °F 1022.9 in SSW 1.6 mph 3.2 mph 52 % 0.0 in
18:05 15.4 °F 5.6 °F 1022.9 in SSW 3.2 mph 4.8 mph 52 % 0.0 in
18:10 15.2 °F 5.4 °F 1022.9 in SW 1.6 mph 4.8 mph 52 % 0.0 in
18:15 15.1 °F 5.3 °F 1022.9 in West 3.7 mph 3.7 mph 52 % 0.0 in
18:20 15.1 °F 5.3 °F 1022.9 in West 5.6 mph 5.6 mph 52 % 0.0 in
18:25 15.0 °F 5.2 °F 1022.9 in WSW 5.6 mph 5.6 mph 52 % 0.0 in
18:30 15.2 °F 5.4 °F 1022.9 in WSW 3.2 mph 6.4 mph 52 % 0.0 in
18:35 15.2 °F 5.4 °F 1022.9 in West 3.7 mph 3.7 mph 52 % 0.0 in
18:40 15.2 °F 5.7 °F 1022.9 in West 3.9 mph 3.9 mph 53 % 0.0 in
18:45 15.3 °F 5.8 °F 1022.9 in West 1.6 mph 4.8 mph 53 % 0.0 in
18:50 15.3 °F 5.7 °F 1022.9 in West 3.2 mph 4.8 mph 53 % 0.0 in
18:55 15.2 °F 5.7 °F 1022.9 in West 4.8 mph 8.0 mph 53 % 0.0 in
19:00 15.1 °F 5.6 °F 1022.9 in West 3.2 mph 8.0 mph 53 % 0.0 in
19:05 15.1 °F 5.6 °F 1023.9 in West 3.2 mph 8.0 mph 53 % 0.0 in
19:10 15.1 °F 5.6 °F 1023.9 in WSW 6.4 mph 6.4 mph 53 % 0.0 in
19:15 15.0 °F 5.5 °F 1023.9 in West 4.8 mph 8.0 mph 53 % 0.0 in
19:20 15.0 °F 5.5 °F 1023.9 in WSW 3.2 mph 9.7 mph 53 % 0.0 in
19:25 14.9 °F 5.4 °F 1023.9 in WSW 3.2 mph 8.0 mph 53 % 0.0 in
19:30 14.9 °F 5.4 °F 1023.9 in WSW 4.8 mph 9.7 mph 53 % 0.0 in
19:35 15.0 °F 5.5 °F 1022.9 in WSW 8.0 mph 9.7 mph 53 % 0.0 in
19:40 15.1 °F 5.6 °F 1022.9 in WSW 4.8 mph 9.7 mph 53 % 0.0 in
19:45 15.2 °F 5.7 °F 1022.9 in West 3.2 mph 8.0 mph 53 % 0.0 in
19:50 15.1 °F 5.6 °F 1023.9 in West 9.3 mph 9.3 mph 53 % 0.0 in
19:55 14.9 °F 5.4 °F 1023.9 in West 4.8 mph 8.0 mph 53 % 0.0 in
20:00 15.0 °F 5.5 °F 1023.9 in West 4.8 mph 12.9 mph 53 % 0.0 in
20:05 15.0 °F 5.5 °F 1022.9 in WSW 5.6 mph 5.6 mph 53 % 0.0 in
20:10 14.8 °F 5.3 °F 1022.9 in WSW 5.6 mph 5.6 mph 53 % 0.0 in
20:15 14.6 °F 5.1 °F 1022.9 in West 3.2 mph 4.8 mph 53 % 0.0 in
20:20 14.6 °F 5.1 °F 1023.9 in WSW 3.2 mph 4.8 mph 53 % 0.0 in
20:25 14.5 °F 5.0 °F 1023.9 in WNW 3.7 mph 3.7 mph 53 % 0.0 in
20:30 14.5 °F 5.0 °F 1023.9 in WSW 4.8 mph 8.0 mph 53 % 0.0 in
20:35 14.4 °F 4.9 °F 1023.9 in WSW 5.8 mph 5.8 mph 53 % 0.0 in
20:40 14.3 °F 4.8 °F 1023.9 in WSW 3.2 mph 8.0 mph 53 % 0.0 in
20:45 14.3 °F 4.8 °F 1023.9 in WSW 4.8 mph 9.7 mph 53 % 0.0 in
20:50 14.3 °F 4.8 °F 1023.9 in WSW 3.2 mph 6.4 mph 53 % 0.0 in
20:55 14.3 °F 5.1 °F 1023.9 in West 4.8 mph 9.7 mph 54 % 0.0 in
21:00 14.4 °F 5.2 °F 1023.9 in WSW 8.0 mph 12.9 mph 54 % 0.0 in
21:05 14.4 °F 5.2 °F 1023.9 in WSW 4.8 mph 11.3 mph 54 % 0.0 in
21:10 14.4 °F 5.2 °F 1023.9 in WSW 3.2 mph 11.3 mph 54 % 0.0 in
21:15 14.4 °F 5.2 °F 1023.9 in West 3.2 mph 6.4 mph 54 % 0.0 in
21:20 14.4 °F 5.2 °F 1023.9 in WSW 4.8 mph 8.0 mph 54 % 0.0 in
21:25 14.3 °F 5.1 °F 1023.9 in West 1.6 mph 8.0 mph 54 % 0.0 in
21:30 14.2 °F 5.0 °F 1023.9 in Calm   3.2 mph 54 % 0.0 in
21:35 14.1 °F 4.9 °F 1023.9 in Calm   3.2 mph 54 % 0.0 in
21:40 13.9 °F 4.7 °F 1023.9 in SW 1.6 mph 3.2 mph 54 % 0.0 in
21:45 13.8 °F 4.9 °F 1023.9 in Calm     55 % 0.0 in
21:50 13.7 °F 4.8 °F 1023.9 in SSW 1.6 mph 1.6 mph 55 % 0.0 in
21:55 13.6 °F 4.7 °F 1023.9 in Calm   1.6 mph 55 % 0.0 in
22:00 13.6 °F 4.7 °F 1023.9 in SW 3.2 mph 4.8 mph 55 % 0.0 in
22:05 13.6 °F 4.7 °F 1024.9 in Calm   3.2 mph 55 % 0.0 in
22:10 13.5 °F 4.6 °F 1024.9 in Calm   3.2 mph 55 % 0.0 in
22:15 13.4 °F 4.6 °F 1024.9 in WNW 1.6 mph 3.2 mph 55 % 0.0 in
22:20 13.4 °F 4.6 °F 1024.9 in West 3.2 mph 4.8 mph 55 % 0.0 in
22:25 13.5 °F 4.9 °F 1024.9 in Calm   3.2 mph 56 % 0.0 in
22:30 13.5 °F 4.9 °F 1024.9 in West 1.6 mph 8.0 mph 56 % 0.0 in
22:35 13.3 °F 4.7 °F 1026.0 in West 1.6 mph 3.2 mph 56 % 0.0 in
22:40 13.2 °F 4.6 °F 1026.0 in West 1.6 mph 3.2 mph 56 % 0.0 in
22:45 13.1 °F 4.8 °F 1026.0 in WNW 1.6 mph 3.2 mph 57 % 0.0 in
22:50 13.0 °F 4.7 °F 1026.0 in Calm   3.2 mph 57 % 0.0 in
22:55 13.0 °F 4.7 °F 1026.0 in ENE 1.6 mph 3.2 mph 57 % 0.0 in
23:00 13.0 °F 4.7 °F 1026.0 in WNW 1.9 mph   57 % 0.0 in
23:05 13.0 °F 4.9 °F 1026.0 in Calm   1.6 mph 58 % 0.0 in
23:10 13.0 °F 4.9 °F 1026.0 in Calm     58 % 0.0 in
23:15 13.0 °F 4.9 °F 1026.0 in Calm   1.6 mph 58 % 0.0 in
23:20 12.8 °F 4.7 °F 1026.0 in Calm     58 % 0.0 in
23:25 12.8 °F 5.0 °F 1026.0 in Calm   1.6 mph 59 % 0.0 in
23:30 12.7 °F 4.9 °F 1026.0 in Calm     59 % 0.0 in
23:35 12.5 °F 4.7 °F 1026.0 in NW 1.6 mph 1.6 mph 59 % 0.0 in
23:40 12.4 °F 4.8 °F 1026.0 in Calm   1.6 mph 60 % 0.0 in
23:45 12.3 °F 4.8 °F 1026.0 in Calm   3.2 mph 60 % 0.0 in
23:50 12.1 °F 4.6 °F 1026.0 in NNE 3.7 mph 3.7 mph 60 % 0.0 in
23:55 12.0 °F 4.4 °F 1026.0 in Calm   3.2 mph 60 % 0.0 in
Meteo Sesrovires
Elogis d' Weather Underground - 2 mb

Guio original per  Jim McMurry - jmcmurry@mwt.net Adaptat per a la plantilla per  Wim van der Kuil - Leuven-Template.eu

Trobareu la nostra informacio del temps tambe a:

Weather Underground

AWEKAS